createdAt,value
2023-04-13T00:00:18.613Z,8.00
2023-04-13T00:02:46.699Z,9.70
2023-04-13T00:05:14.468Z,9.40
2023-04-13T00:07:43.457Z,9.70
2023-04-13T00:10:11.485Z,10.00
2023-04-13T00:12:41.143Z,9.90
2023-04-13T00:15:09.886Z,9.20
2023-04-13T00:17:38.102Z,10.70
2023-04-13T00:20:12.946Z,10.10
2023-04-13T00:22:42.291Z,10.10
2023-04-13T00:25:11.796Z,9.70
2023-04-13T00:27:39.554Z,9.80
2023-04-13T00:30:15.771Z,9.70
2023-04-13T00:35:15.950Z,10.00
2023-04-13T00:37:43.342Z,9.80
2023-04-13T00:40:11.796Z,9.60
2023-04-13T00:42:39.128Z,9.70
2023-04-13T00:45:07.811Z,9.90
2023-04-13T00:47:36.148Z,9.80
2023-04-13T00:50:06.114Z,9.90
2023-04-13T00:52:39.964Z,9.60
2023-04-13T00:55:07.926Z,9.90
2023-04-13T00:57:36.666Z,10.20
2023-04-13T01:00:09.501Z,10.30
2023-04-13T01:02:42.175Z,9.40
2023-04-13T01:05:15.647Z,10.20
2023-04-13T01:08:07.765Z,8.90
2023-04-13T01:11:01.733Z,10.00
2023-04-13T01:13:42.342Z,9.20
2023-04-13T01:16:44.713Z,9.70
2023-04-13T01:19:35.736Z,9.50
2023-04-13T01:22:05.105Z,8.70
2023-04-13T01:24:47.045Z,9.60
2023-04-13T01:27:21.661Z,9.60
2023-04-13T01:29:50.853Z,9.40
2023-04-13T01:32:18.420Z,9.30
2023-04-13T01:34:46.330Z,9.40
2023-04-13T01:37:14.183Z,9.30
2023-04-13T01:39:41.501Z,9.40
2023-04-13T01:42:08.894Z,9.40
2023-04-13T01:44:36.578Z,9.60
2023-04-13T01:47:25.926Z,9.40
2023-04-13T01:50:00.760Z,9.50
2023-04-13T01:52:29.503Z,9.00
2023-04-13T01:54:57.930Z,9.00
2023-04-13T01:57:26.296Z,8.90
2023-04-13T01:59:53.661Z,9.20
2023-04-13T02:02:21.138Z,9.20
2023-04-13T02:04:48.703Z,9.90
2023-04-13T02:07:16.486Z,9.30
2023-04-13T02:09:43.778Z,9.50
2023-04-13T02:12:12.766Z,9.10
2023-04-13T02:14:40.193Z,9.50
2023-04-13T02:17:08.351Z,9.40
2023-04-13T02:19:35.970Z,9.60
2023-04-13T02:22:03.456Z,8.50
2023-04-13T02:24:30.771Z,9.10
2023-04-13T02:26:58.150Z,9.00
2023-04-13T02:29:25.508Z,8.90
2023-04-13T02:31:52.948Z,8.90
2023-04-13T02:34:20.280Z,9.10
2023-04-13T02:36:48.655Z,8.80
2023-04-13T02:39:16.035Z,9.10
2023-04-13T02:41:43.473Z,8.80
2023-04-13T02:44:11.821Z,8.60
2023-04-13T02:46:39.299Z,8.70
2023-04-13T02:49:06.597Z,9.00
2023-04-13T02:51:34.040Z,8.60
2023-04-13T02:54:03.552Z,8.90
2023-04-13T02:56:31.118Z,8.30
2023-04-13T02:58:59.889Z,8.30
2023-04-13T03:01:27.335Z,7.90
2023-04-13T03:03:55.298Z,9.10
2023-04-13T03:06:26.054Z,8.20
2023-04-13T03:08:53.876Z,8.50
2023-04-13T03:11:23.674Z,8.90
2023-04-13T03:13:54.285Z,8.20
2023-04-13T03:16:21.672Z,8.00
2023-04-13T03:18:49.012Z,8.10
2023-04-13T03:21:16.350Z,8.10
2023-04-13T03:23:44.349Z,8.20
2023-04-13T03:26:11.877Z,8.10
2023-04-13T03:28:39.250Z,8.00
2023-04-13T03:31:06.741Z,7.40
2023-04-13T03:33:34.191Z,8.20
2023-04-13T03:36:01.693Z,8.30
2023-04-13T03:38:29.492Z,9.10
2023-04-13T03:40:56.854Z,7.80
2023-04-13T03:43:24.162Z,8.10
2023-04-13T03:45:51.670Z,8.40
2023-04-13T03:48:19.617Z,7.40
2023-04-13T03:50:47.169Z,7.90
2023-04-13T03:53:14.630Z,8.10
2023-04-13T03:55:43.205Z,8.00
2023-04-13T03:58:11.335Z,8.00
2023-04-13T04:00:38.915Z,8.40
2023-04-13T04:03:06.364Z,8.00
2023-04-13T04:05:33.825Z,8.10
2023-04-13T04:08:01.163Z,7.10
2023-04-13T04:10:28.644Z,8.60
2023-04-13T04:12:58.440Z,7.90
2023-04-13T04:15:26.206Z,8.00
2023-04-13T04:17:53.735Z,7.90
2023-04-13T04:20:21.322Z,8.00
2023-04-13T04:22:51.537Z,7.10
2023-04-13T04:25:22.695Z,8.00
2023-04-13T04:27:58.135Z,8.10
2023-04-13T04:30:30.122Z,8.10
2023-04-13T04:32:57.585Z,8.00
2023-04-13T04:35:26.502Z,7.90
2023-04-13T04:37:55.377Z,7.90
2023-04-13T04:40:22.798Z,8.10
2023-04-13T04:42:54.072Z,8.00
2023-04-13T04:45:21.583Z,7.20
2023-04-13T04:47:52.944Z,8.20
2023-04-13T04:50:20.542Z,7.90
2023-04-13T04:52:47.988Z,7.80
2023-04-13T04:55:15.845Z,8.00
2023-04-13T04:57:44.018Z,8.20
2023-04-13T05:00:18.375Z,7.60
2023-04-13T05:02:46.907Z,7.80
2023-04-13T05:05:15.610Z,7.90
2023-04-13T05:07:43.285Z,8.00
2023-04-13T05:10:11.584Z,7.50
2023-04-13T05:12:39.138Z,8.00
2023-04-13T05:15:07.853Z,8.10
2023-04-13T05:17:36.521Z,7.90
2023-04-13T05:20:07.198Z,7.70
2023-04-13T05:22:34.933Z,6.90
2023-04-13T05:25:02.717Z,8.00
2023-04-13T05:27:30.562Z,6.80
2023-04-13T05:29:59.184Z,7.80
2023-04-13T05:32:26.780Z,8.90
2023-04-13T05:34:54.507Z,7.60
2023-04-13T05:37:22.341Z,7.90
2023-04-13T05:39:50.213Z,9.00
2023-04-13T05:42:17.715Z,7.80
2023-04-13T05:44:45.285Z,7.70
2023-04-13T05:47:12.968Z,7.80
2023-04-13T05:49:40.290Z,8.00
2023-04-13T05:52:08.180Z,8.10
2023-04-13T05:54:36.844Z,7.70
2023-04-13T05:57:04.844Z,7.70
2023-04-13T05:59:32.266Z,7.80
2023-04-13T06:02:01.204Z,7.20
2023-04-13T06:04:29.571Z,8.40
2023-04-13T06:06:57.948Z,7.70
2023-04-13T06:09:25.997Z,7.40
2023-04-13T06:11:54.719Z,7.70
2023-04-13T06:14:22.756Z,7.60
2023-04-13T06:16:50.799Z,7.40
2023-04-13T06:19:19.013Z,8.20
2023-04-13T06:21:46.767Z,7.50
2023-04-13T06:24:14.331Z,8.00
2023-04-13T06:26:41.982Z,8.20
2023-04-13T06:29:09.795Z,8.00
2023-04-13T06:31:37.664Z,7.90
2023-04-13T06:34:05.193Z,5.60
2023-04-13T06:36:33.644Z,8.20
2023-04-13T06:39:14.864Z,8.40
2023-04-13T06:41:42.632Z,9.60
2023-04-13T06:44:10.696Z,8.40
2023-04-13T06:46:38.392Z,7.90
2023-04-13T06:49:07.274Z,8.00
2023-04-13T06:51:34.902Z,8.10
2023-04-13T06:54:02.289Z,7.60
2023-04-13T06:56:30.056Z,8.10
2023-04-13T06:59:02.877Z,8.60
2023-04-13T07:01:30.905Z,9.40
2023-04-13T07:03:59.090Z,9.10
2023-04-13T07:06:26.869Z,8.20
2023-04-13T07:08:54.670Z,8.10
2023-04-13T07:11:22.255Z,8.30
2023-04-13T07:13:50.004Z,8.40
2023-04-13T07:16:17.516Z,8.40
2023-04-13T07:18:45.526Z,8.60
2023-04-13T07:21:13.421Z,7.80
2023-04-13T07:23:42.815Z,9.60
2023-04-13T07:26:16.827Z,8.70
2023-04-13T07:28:44.537Z,8.30
2023-04-13T07:31:12.431Z,8.50
2023-04-13T07:33:40.126Z,8.50
2023-04-13T07:36:08.721Z,8.50
2023-04-13T07:38:36.388Z,7.60
2023-04-13T07:41:04.894Z,8.40
2023-04-13T07:43:32.740Z,9.30
2023-04-13T07:46:00.864Z,7.40
2023-04-13T07:48:28.506Z,7.80
2023-04-13T07:50:56.822Z,9.20
2023-04-13T07:53:35.467Z,8.20
2023-04-13T07:56:14.204Z,7.00
2023-04-13T07:58:43.646Z,8.10
2023-04-13T08:01:18.634Z,9.20
2023-04-13T08:03:47.336Z,9.20
2023-04-13T08:06:15.075Z,9.20
2023-04-13T08:08:42.666Z,9.10
2023-04-13T08:11:10.442Z,8.80
2023-04-13T08:13:37.900Z,8.80
2023-04-13T08:16:06.606Z,8.50
2023-04-13T08:18:34.483Z,9.10
2023-04-13T08:21:02.347Z,8.80
2023-04-13T08:23:31.161Z,9.30
2023-04-13T08:26:02.544Z,8.80
2023-04-13T08:28:32.085Z,8.80
2023-04-13T08:31:00.154Z,8.80
2023-04-13T08:33:28.042Z,8.80
2023-04-13T08:35:55.784Z,9.10
2023-04-13T08:38:23.471Z,8.80
2023-04-13T08:41:02.582Z,8.80
2023-04-13T08:43:33.283Z,9.30
2023-04-13T08:46:01.028Z,9.10
2023-04-13T08:48:36.269Z,9.10
2023-04-13T08:51:10.667Z,7.50
2023-04-13T08:53:38.510Z,9.40
2023-04-13T08:56:14.737Z,9.30
2023-04-13T08:58:44.212Z,9.30
2023-04-13T09:01:15.577Z,9.20
2023-04-13T09:04:03.052Z,9.30
2023-04-13T09:06:36.112Z,9.20
2023-04-13T09:09:07.615Z,7.90
2023-04-13T09:11:35.166Z,9.00
2023-04-13T09:14:02.702Z,8.90
2023-04-13T09:16:31.232Z,8.40
2023-04-13T09:19:00.011Z,9.00
2023-04-13T09:21:57.389Z,8.80
2023-04-13T09:24:26.257Z,9.30
2023-04-13T09:26:54.411Z,9.20
2023-04-13T09:29:24.717Z,8.90
2023-04-13T09:31:52.839Z,9.70
2023-04-13T09:34:36.929Z,9.40
2023-04-13T09:37:28.499Z,9.50
2023-04-13T09:40:12.988Z,9.40
2023-04-13T09:43:04.937Z,10.20
2023-04-13T09:45:44.554Z,9.90
2023-04-13T09:48:21.937Z,9.80
2023-04-13T09:51:00.030Z,9.80
2023-04-13T09:53:42.677Z,8.60
2023-04-13T09:56:10.430Z,9.80
2023-04-13T09:58:45.657Z,10.60
2023-04-13T10:01:17.086Z,9.90
2023-04-13T10:06:27.641Z,10.10
2023-04-13T10:08:56.449Z,11.40
2023-04-13T10:11:24.820Z,10.20
2023-04-13T10:14:09.405Z,10.20
2023-04-13T10:17:02.136Z,10.20
2023-04-13T10:19:37.780Z,10.10
2023-04-13T10:22:11.853Z,10.70
2023-04-13T10:24:40.697Z,11.00
2023-04-13T10:27:25.773Z,10.50
2023-04-13T10:29:53.660Z,11.10
2023-04-13T10:32:24.986Z,10.70
2023-04-13T10:34:53.760Z,10.80
2023-04-13T10:37:23.571Z,10.50
2023-04-13T10:40:09.664Z,10.60
2023-04-13T10:45:38.058Z,11.00
2023-04-13T10:48:07.781Z,9.00
2023-04-13T10:50:35.477Z,11.10
2023-04-13T10:53:05.337Z,10.90
2023-04-13T10:55:33.973Z,10.60
2023-04-13T10:58:02.811Z,11.60
2023-04-13T11:00:45.682Z,11.10
2023-04-13T11:03:15.795Z,11.20
2023-04-13T11:05:47.844Z,11.30
2023-04-13T11:08:22.377Z,11.40
2023-04-13T11:10:55.091Z,10.90
2023-04-13T11:13:27.152Z,11.30
2023-04-13T11:16:04.020Z,11.20
2023-04-13T11:18:32.303Z,11.80
2023-04-13T11:21:00.347Z,11.50
2023-04-13T11:23:28.327Z,11.70
2023-04-13T11:26:04.846Z,11.90
2023-04-13T11:28:46.395Z,11.50
2023-04-13T11:31:14.578Z,12.20
2023-04-13T11:33:44.960Z,11.30
2023-04-13T11:36:13.191Z,11.10
2023-04-13T11:38:42.419Z,11.80
2023-04-13T11:41:17.461Z,11.60
2023-04-13T11:43:48.929Z,11.90
2023-04-13T11:46:25.344Z,11.50
2023-04-13T11:48:53.886Z,12.30
2023-04-13T11:51:22.780Z,11.60
2023-04-13T11:53:51.626Z,11.30
2023-04-13T11:56:20.442Z,11.40
2023-04-13T11:58:51.856Z,11.30
2023-04-13T12:01:26.228Z,11.10
2023-04-13T12:04:12.976Z,11.40
2023-04-13T12:06:50.267Z,11.40
2023-04-13T12:09:31.034Z,12.30
2023-04-13T12:15:08.928Z,11.00
2023-04-13T12:17:50.130Z,11.50
2023-04-13T12:23:12.384Z,12.30
2023-04-13T12:25:56.734Z,11.30
2023-04-13T12:28:34.173Z,11.40
2023-04-13T12:31:28.246Z,11.10
2023-04-13T12:33:56.650Z,11.80
2023-04-13T12:36:24.127Z,11.50
2023-04-13T12:38:54.229Z,11.10
2023-04-13T12:41:22.119Z,11.40
2023-04-13T12:43:49.745Z,11.20
2023-04-13T12:46:17.513Z,11.30
2023-04-13T12:48:47.548Z,11.50
2023-04-13T12:51:15.039Z,11.90
2023-04-13T12:53:43.072Z,11.30
2023-04-13T12:56:10.616Z,11.40
2023-04-13T12:58:38.473Z,11.50
2023-04-13T13:01:07.092Z,11.40
2023-04-13T13:03:37.253Z,11.50
2023-04-13T13:06:05.904Z,11.60
2023-04-13T13:08:35.626Z,11.10
2023-04-13T13:11:05.540Z,11.00
2023-04-13T13:13:32.850Z,10.80
2023-04-13T13:16:00.472Z,10.90
2023-04-13T13:18:38.491Z,10.90
2023-04-13T13:21:14.670Z,11.20
2023-04-13T13:23:42.038Z,10.80
2023-04-13T13:28:39.720Z,10.10
2023-04-13T13:31:08.463Z,10.90
2023-04-13T13:33:36.614Z,10.80
2023-04-13T13:36:04.126Z,11.10
2023-04-13T13:38:31.581Z,11.20
2023-04-13T13:40:59.183Z,10.90
2023-04-13T13:43:26.894Z,10.10
2023-04-13T13:45:54.419Z,10.90
2023-04-13T13:48:23.861Z,10.60
2023-04-13T13:50:51.639Z,10.60
2023-04-13T13:53:19.022Z,10.80
2023-04-13T13:55:46.380Z,11.10
2023-04-13T13:58:13.907Z,10.70
2023-04-13T14:00:42.211Z,10.70
2023-04-13T14:03:09.734Z,10.30
2023-04-13T14:05:37.688Z,11.10
2023-04-13T14:08:05.371Z,11.80
2023-04-13T14:10:33.183Z,11.10
2023-04-13T14:13:00.666Z,11.00
2023-04-13T14:15:28.511Z,10.90
2023-04-13T14:20:29.705Z,10.90
2023-04-13T14:22:58.258Z,11.30
2023-04-13T14:25:25.848Z,10.80
2023-04-13T14:27:53.273Z,10.90
2023-04-13T14:30:24.977Z,9.90
2023-04-13T14:32:56.521Z,10.80
2023-04-13T14:35:24.916Z,10.20
2023-04-13T14:37:52.955Z,9.80
2023-04-13T14:40:23.712Z,10.40
2023-04-13T14:42:54.236Z,10.30
2023-04-13T14:45:22.092Z,10.40
2023-04-13T14:47:50.391Z,10.00
2023-04-13T14:50:18.082Z,10.20
2023-04-13T14:52:46.562Z,10.20
2023-04-13T14:55:15.342Z,10.20
2023-04-13T14:57:42.791Z,10.00
2023-04-13T15:00:31.063Z,9.40
2023-04-13T15:02:58.637Z,9.90
2023-04-13T15:05:26.561Z,10.10
2023-04-13T15:07:54.019Z,10.40
2023-04-13T15:10:21.570Z,10.00
2023-04-13T15:12:48.952Z,9.80
2023-04-13T15:15:16.542Z,10.00
2023-04-13T15:17:44.033Z,9.80
2023-04-13T15:20:12.252Z,9.30
2023-04-13T15:22:39.692Z,9.30
2023-04-13T15:25:07.401Z,9.40
2023-04-13T15:27:34.841Z,9.10
2023-04-13T15:30:03.859Z,9.50
2023-04-13T15:32:34.075Z,9.60
2023-04-13T15:35:02.184Z,9.10
2023-04-13T15:37:29.632Z,9.70
2023-04-13T15:39:57.067Z,9.30
2023-04-13T15:42:26.158Z,9.00
2023-04-13T15:44:55.415Z,9.20
2023-04-13T15:47:22.993Z,9.30
2023-04-13T15:49:50.489Z,9.90
2023-04-13T15:52:17.980Z,8.90
2023-04-13T15:54:45.359Z,9.10
2023-04-13T15:57:12.784Z,9.40
2023-04-13T15:59:40.169Z,9.10
2023-04-13T16:02:07.997Z,9.00
2023-04-13T16:04:35.681Z,9.00
2023-04-13T16:07:13.063Z,9.10
2023-04-13T16:09:44.016Z,10.00
2023-04-13T16:12:11.853Z,9.20
2023-04-13T16:14:41.985Z,9.20
2023-04-13T16:17:10.610Z,8.60
2023-04-13T16:19:38.213Z,8.70
2023-04-13T16:22:10.607Z,8.60
2023-04-13T16:24:37.998Z,8.40
2023-04-13T16:27:07.681Z,8.60
2023-04-13T16:29:35.174Z,8.40
2023-04-13T16:32:03.645Z,9.20
2023-04-13T16:34:31.311Z,9.10
2023-04-13T16:36:58.846Z,8.60
2023-04-13T16:39:26.651Z,8.90
2023-04-13T16:41:54.449Z,7.60
2023-04-13T16:44:21.857Z,9.10
2023-04-13T16:46:49.316Z,8.30
2023-04-13T16:49:16.902Z,8.30
2023-04-13T16:51:44.243Z,8.30
2023-04-13T16:54:14.095Z,8.40
2023-04-13T16:56:41.624Z,8.20
2023-04-13T16:59:09.113Z,7.70
2023-04-13T17:01:39.295Z,8.10
2023-04-13T17:04:09.569Z,8.40
2023-04-13T17:06:38.464Z,8.10
2023-04-13T17:09:06.446Z,8.40
2023-04-13T17:11:34.090Z,8.10
2023-04-13T17:14:01.496Z,8.30
2023-04-13T17:16:29.710Z,7.90
2023-04-13T17:18:57.710Z,7.80
2023-04-13T17:21:25.363Z,9.00
2023-04-13T17:23:52.851Z,7.80
2023-04-13T17:26:20.258Z,7.60
2023-04-13T17:28:47.751Z,7.90
2023-04-13T17:31:15.260Z,7.30
2023-04-13T17:33:45.071Z,7.90
2023-04-13T17:36:12.851Z,7.10
2023-04-13T17:38:40.249Z,7.40
2023-04-13T17:41:08.902Z,7.90
2023-04-13T17:43:36.803Z,7.30
2023-04-13T17:46:04.302Z,7.10
2023-04-13T17:48:31.673Z,7.50
2023-04-13T17:50:59.016Z,7.30
2023-04-13T17:53:26.555Z,7.30
2023-04-13T17:55:54.087Z,7.40
2023-04-13T17:58:21.699Z,7.20
2023-04-13T18:00:49.096Z,7.00
2023-04-13T18:03:16.629Z,7.20
2023-04-13T18:05:44.857Z,7.00
2023-04-13T18:08:12.545Z,7.00
2023-04-13T18:10:39.999Z,6.90
2023-04-13T18:13:07.445Z,6.80
2023-04-13T18:15:34.900Z,7.10
2023-04-13T18:18:02.265Z,6.90
2023-04-13T18:20:30.563Z,6.70
2023-04-13T18:22:57.990Z,7.00
2023-04-13T18:25:25.470Z,7.10
2023-04-13T18:27:52.907Z,6.90
2023-04-13T18:30:21.472Z,6.60
2023-04-13T18:32:51.872Z,6.60
2023-04-13T18:35:19.446Z,6.60
2023-04-13T18:37:47.111Z,6.90
2023-04-13T18:40:14.456Z,7.10
2023-04-13T18:42:42.161Z,6.70
2023-04-13T18:45:10.046Z,6.40
2023-04-13T18:47:37.378Z,6.50
2023-04-13T18:50:06.221Z,6.80
2023-04-13T18:52:33.621Z,6.30
2023-04-13T18:55:01.442Z,6.60
2023-04-13T18:57:28.822Z,7.10
2023-04-13T18:59:57.411Z,6.40
2023-04-13T19:02:25.102Z,6.70
2023-04-13T19:04:52.668Z,6.30
2023-04-13T19:07:20.453Z,6.70
2023-04-13T19:09:47.863Z,6.50
2023-04-13T19:12:15.543Z,6.80
2023-04-13T19:14:43.011Z,6.10
2023-04-13T19:17:10.503Z,5.90
2023-04-13T19:19:37.981Z,6.00
2023-04-13T19:22:05.344Z,6.70
2023-04-13T19:24:32.772Z,6.60
2023-04-13T19:27:00.212Z,6.40
2023-04-13T19:29:30.322Z,6.00
2023-04-13T19:31:58.610Z,5.80
2023-04-13T19:34:26.584Z,6.70
2023-04-13T19:36:54.093Z,6.20
2023-04-13T19:39:21.553Z,6.30
2023-04-13T19:41:49.014Z,6.00
2023-04-13T19:44:17.103Z,6.00
2023-04-13T19:46:44.590Z,6.20
2023-04-13T19:49:12.622Z,6.30
2023-04-13T19:51:40.498Z,5.80
2023-04-13T19:54:08.073Z,6.20
2023-04-13T19:56:36.019Z,5.60
2023-04-13T19:59:04.662Z,6.30
2023-04-13T20:01:33.888Z,6.20
2023-04-13T20:04:04.422Z,6.20
2023-04-13T20:06:36.118Z,5.90
2023-04-13T20:09:10.797Z,5.60
2023-04-13T20:11:38.793Z,6.50
2023-04-13T20:14:06.204Z,5.90
2023-04-13T20:16:35.528Z,6.20
2023-04-13T20:19:05.564Z,6.00
2023-04-13T20:21:34.544Z,6.10
2023-04-13T20:24:03.143Z,5.50
2023-04-13T20:26:31.720Z,5.60
2023-04-13T20:29:01.466Z,6.20
2023-04-13T20:31:30.521Z,6.10
2023-04-13T20:33:58.716Z,5.30
2023-04-13T20:36:27.167Z,5.70
2023-04-13T20:39:00.988Z,5.90
2023-04-13T20:41:33.932Z,6.10
2023-04-13T20:44:02.726Z,5.50
2023-04-13T20:46:34.919Z,6.20
2023-04-13T20:49:06.412Z,5.50
2023-04-13T20:51:34.003Z,5.40
2023-04-13T20:54:02.786Z,5.40
2023-04-13T20:56:30.437Z,6.10
2023-04-13T20:58:58.371Z,5.50
2023-04-13T21:01:25.980Z,6.10
2023-04-13T21:03:53.672Z,6.20
2023-04-13T21:06:22.894Z,5.60
2023-04-13T21:08:52.815Z,5.50
2023-04-13T21:11:21.379Z,5.40
2023-04-13T21:13:48.783Z,5.70
2023-04-13T21:16:16.097Z,5.30
2023-04-13T21:18:43.613Z,6.10
2023-04-13T21:21:11.100Z,5.60
2023-04-13T21:23:38.467Z,6.00
2023-04-13T21:26:07.063Z,5.70
2023-04-13T21:28:34.401Z,5.80
2023-04-13T21:31:01.904Z,5.70
2023-04-13T21:33:29.312Z,6.10
2023-04-13T21:35:56.641Z,5.90
2023-04-13T21:38:24.033Z,5.60
2023-04-13T21:40:51.791Z,5.70
2023-04-13T21:43:19.205Z,6.00
2023-04-13T21:45:46.726Z,5.80
2023-04-13T21:48:15.097Z,5.60
2023-04-13T21:50:42.568Z,6.30
2023-04-13T21:53:09.912Z,4.60
2023-04-13T21:55:37.268Z,5.80
2023-04-13T21:58:04.595Z,5.40
2023-04-13T22:00:32.179Z,5.80
2023-04-13T22:02:59.823Z,5.40
2023-04-13T22:05:27.535Z,5.60
2023-04-13T22:07:55.045Z,5.30
2023-04-13T22:10:22.466Z,5.30
2023-04-13T22:12:52.274Z,5.10
2023-04-13T22:15:19.620Z,5.40
2023-04-13T22:17:48.732Z,5.50
2023-04-13T22:20:16.440Z,6.20
2023-04-13T22:22:43.893Z,5.10
2023-04-13T22:25:11.311Z,5.50
2023-04-13T22:27:38.852Z,4.90
2023-04-13T22:30:07.489Z,5.40
2023-04-13T22:32:35.365Z,5.20
2023-04-13T22:35:02.950Z,5.10
2023-04-13T22:37:34.592Z,5.70
2023-04-13T22:40:02.359Z,5.60
2023-04-13T22:42:29.986Z,5.10
2023-04-13T22:44:57.323Z,5.30
2023-04-13T22:47:24.839Z,5.10
2023-04-13T22:49:52.343Z,5.00
2023-04-13T22:52:19.951Z,5.70
2023-04-13T22:54:47.691Z,5.80
2023-04-13T22:57:15.224Z,5.40
2023-04-13T22:59:42.667Z,5.40
2023-04-13T23:02:10.507Z,5.70
2023-04-13T23:04:38.727Z,5.40
2023-04-13T23:07:06.349Z,5.30
2023-04-13T23:09:33.751Z,5.60
2023-04-13T23:12:01.740Z,5.20
2023-04-13T23:14:29.189Z,5.90
2023-04-13T23:16:57.928Z,5.50
2023-04-13T23:19:25.530Z,5.50
2023-04-13T23:21:52.906Z,4.20
2023-04-13T23:24:20.387Z,5.60
2023-04-13T23:26:47.918Z,5.90
2023-04-13T23:29:16.345Z,5.40
2023-04-13T23:31:43.835Z,6.00
2023-04-13T23:34:11.373Z,4.60
2023-04-13T23:36:38.772Z,5.70
2023-04-13T23:39:06.431Z,5.10
2023-04-13T23:41:33.770Z,5.80
2023-04-13T23:44:01.121Z,5.00
2023-04-13T23:46:30.475Z,4.90
2023-04-13T23:48:58.005Z,5.70
2023-04-13T23:51:25.689Z,5.70
2023-04-13T23:53:53.033Z,5.70
2023-04-13T23:56:20.425Z,4.90
2023-04-13T23:58:48.065Z,5.40
